Time;durP1;ratioP1;P1;durP2;ratioP2;P2;SDS_P1;SDS_P2;PMS_P1;PMS_P2;Temp;Humidity;BMP_temperature;BMP_pressure;BME280_temperature;BME280_humidity;BME280_pressure;Samples;Min_cycle;Max_cycle;Signal;HPM_P1;HPM_P2
2022/06/05 00:00:35;;;;;;;5.88;5.35;;;22.30;97.90;;;;;;5058990;28;20068;-68
2022/06/05 00:03:12;;;;;;;5.88;5.05;;;22.30;97.60;;;;;;5049386;28;20028;-68
2022/06/05 00:05:45;;;;;;;5.97;5.47;;;22.20;97.60;;;;;;5058197;28;20052;-69
2022/06/05 00:08:34;;;;;;;8.18;6.22;;;22.10;97.80;;;;;;5050812;28;20033;-69
2022/06/05 00:11:01;;;;;;;5.85;5.25;;;22.10;97.60;;;;;;5054038;28;20029;-69
2022/06/05 00:13:50;;;;;;;6.38;5.03;;;22.10;97.90;;;;;;5055774;28;20466;-69
2022/06/05 00:16:18;;;;;;;7.10;4.90;;;22.00;97.90;;;;;;5045173;28;20048;-68
2022/06/05 00:18:45;;;;;;;5.97;5.32;;;22.00;98.30;;;;;;5055489;28;20036;-69
2022/06/05 00:21:11;;;;;;;5.90;4.93;;;22.00;98.40;;;;;;5058140;28;20028;-69
2022/06/05 00:23:38;;;;;;;4.60;4.20;;;22.00;98.30;;;;;;5052883;28;20106;-69
2022/06/05 00:26:27;;;;;;;6.53;5.13;;;22.00;97.90;;;;;;5054463;28;20392;-68
2022/06/05 00:28:57;;;;;;;6.38;5.53;;;22.00;98.20;;;;;;5061203;28;20103;-69
2022/06/05 00:31:38;;;;;;;5.65;4.72;;;22.10;98.20;;;;;;5058651;28;20032;-69
2022/06/05 00:34:04;;;;;;;5.00;4.55;;;22.00;98.50;;;;;;5050866;28;20033;-69
2022/06/05 00:36:54;;;;;;;5.85;5.40;;;22.10;98.60;;;;;;5053405;28;20036;-69
2022/06/05 00:39:51;;;;;;;6.75;5.03;;;22.10;98.50;;;;;;5047006;28;20052;-69
2022/06/05 00:42:19;;;;;;;6.28;5.47;;;22.00;98.40;;;;;;5055564;28;20104;-68
2022/06/05 00:44:54;;;;;;;6.03;5.32;;;22.00;98.30;;;;;;5047605;28;20468;-68
2022/06/05 00:47:24;;;;;;;7.32;5.47;;;22.00;98.60;;;;;;5053404;28;20022;-68
2022/06/05 00:50:03;;;;;;;6.35;5.85;;;22.00;97.90;;;;;;5064053;28;20474;-69
2022/06/05 00:52:33;;;;;;;8.38;6.03;;;22.10;97.90;;;;;;5059356;28;20417;-69
2022/06/05 00:54:58;;;;;;;6.38;5.85;;;22.00;98.10;;;;;;5041185;28;20108;-69
2022/06/05 00:57:28;;;;;;;6.60;5.90;;;21.90;98.60;;;;;;5055237;28;20513;-69
2022/06/05 00:59:55;;;;;;;6.85;5.50;;;21.80;98.90;;;;;;5059826;28;20021;-69
2022/06/05 01:02:20;;;;;;;7.22;5.35;;;21.50;99.60;;;;;;5059504;28;20608;-68
2022/06/05 01:04:49;;;;;;;6.65;6.05;;;21.60;99.50;;;;;;5056768;28;20032;-68
2022/06/05 01:07:16;;;;;;;6.55;5.65;;;21.60;99.90;;;;;;5056765;28;20033;-68
2022/06/05 01:09:44;;;;;;;6.80;5.55;;;21.40;99.90;;;;;;5053167;28;20021;-70
2022/06/05 01:12:35;;;;;;;11.88;6.65;;;21.40;99.90;;;;;;5055110;28;20024;-70
2022/06/05 01:15:19;;;;;;;6.82;6.22;;;21.40;99.90;;;;;;5053636;28;20035;-70
2022/06/05 01:18:01;;;;;;;8.77;6.38;;;21.50;99.90;;;;;;5054356;28;20060;-69
2022/06/05 01:20:57;;;;;;;8.75;6.43;;;21.50;99.90;;;;;;5056036;28;20074;-69
2022/06/05 01:23:59;;;;;;;7.75;7.03;;;21.50;99.90;;;;;;5047280;28;20048;-69
2022/06/05 01:26:37;;;;;;;7.28;6.60;;;21.60;99.90;;;;;;5058413;28;20051;-69
2022/06/05 01:29:44;;;;;;;7.55;6.47;;;21.70;99.90;;;;;;5048897;28;20025;-69
2022/06/05 01:32:15;;;;;;;7.28;6.68;;;21.60;99.90;;;;;;5057334;28;20027;-69
2022/06/05 01:34:48;;;;;;;7.43;6.72;;;21.70;99.90;;;;;;5053562;28;20523;-68
2022/06/05 01:37:32;;;;;;;7.28;6.57;;;21.70;99.90;;;;;;5050866;28;20033;-68
2022/06/05 01:40:11;;;;;;;8.57;7.88;;;21.70;99.90;;;;;;5057982;28;20025;-68
2022/06/05 01:43:10;;;;;;;8.57;7.30;;;21.70;99.90;;;;;;5054514;28;20057;-68
2022/06/05 01:46:11;;;;;;;7.80;6.90;;;21.60;99.90;;;;;;5052133;28;20105;-68
2022/06/05 01:48:54;;;;;;;7.25;6.60;;;21.50;99.90;;;;;;5052683;28;20037;-68
2022/06/05 01:51:28;;;;;;;8.18;7.47;;;21.50;99.90;;;;;;5051549;28;20021;-68
2022/06/05 01:53:57;;;;;;;8.70;7.53;;;21.50;99.90;;;;;;5055640;28;20159;-68
2022/06/05 01:56:55;;;;;;;7.97;7.28;;;21.40;99.90;;;;;;5050270;28;20135;-68
2022/06/05 01:59:39;;;;;;;9.93;7.43;;;21.30;99.90;;;;;;5049273;28;20067;-68
2022/06/05 02:02:10;;;;;;;9.40;8.45;;;21.20;99.90;;;;;;5046955;28;20124;-68
2022/06/05 02:04:40;;;;;;;8.68;7.72;;;21.00;99.90;;;;;;5054846;28;20079;-69
2022/06/05 02:07:16;;;;;;;9.32;8.02;;;21.00;99.90;;;;;;5051507;28;20036;-68
2022/06/05 02:09:49;;;;;;;9.52;8.52;;;20.90;99.90;;;;;;5053479;28;20029;-68
2022/06/05 02:12:15;;;;;;;8.82;8.13;;;21.00;99.90;;;;;;5052682;28;20078;-68
2022/06/05 02:14:42;;;;;;;8.75;7.97;;;21.10;99.90;;;;;;5051708;28;20537;-68
2022/06/05 02:17:10;;;;;;;8.50;7.65;;;21.10;99.90;;;;;;5047540;28;20371;-68
2022/06/05 02:19:36;;;;;;;8.70;7.65;;;21.20;99.90;;;;;;5051129;28;20479;-68
2022/06/05 02:22:32;;;;;;;9.48;7.35;;;21.10;99.90;;;;;;5048429;28;20021;-68
2022/06/05 02:24:58;;;;;;;8.23;6.88;;;21.00;99.90;;;;;;5053928;28;20530;-68
2022/06/05 02:27:26;;;;;;;7.85;7.13;;;20.90;99.90;;;;;;5051816;28;20068;-68
2022/06/05 02:29:54;;;;;;;7.80;7.13;;;20.80;99.90;;;;;;5067848;28;20116;-68
2022/06/05 02:32:32;;;;;;;8.23;7.10;;;20.90;99.90;;;;;;5050387;28;20021;-68
2022/06/05 02:35:33;;;;;;;8.65;6.95;;;20.90;99.90;;;;;;5047951;28;20481;-69
2022/06/05 02:38:01;;;;;;;9.18;8.48;;;20.90;99.90;;;;;;5047118;28;20029;-68
2022/06/05 02:40:35;;;;;;;8.38;7.60;;;20.90;99.90;;;;;;5052080;28;20036;-68
2022/06/05 02:43:10;;;;;;;8.27;7.45;;;20.90;99.90;;;;;;5048610;28;20025;-68
2022/06/05 02:45:40;;;;;;;7.45;6.80;;;20.80;99.90;;;;;;5053685;28;20094;-68
2022/06/05 02:48:25;;;;;;;8.57;7.78;;;20.80;99.90;;;;;;5052115;28;20025;-68
2022/06/05 02:51:13;;;;;;;9.75;8.18;;;20.80;99.90;;;;;;5050284;28;20025;-68
2022/06/05 02:53:57;;;;;;;9.23;8.35;;;20.70;99.90;;;;;;5062008;28;20079;-68
2022/06/05 02:56:24;;;;;;;8.77;7.43;;;20.70;99.90;;;;;;5048931;28;20394;-68
2022/06/05 02:58:51;;;;;;;10.32;8.35;;;20.70;99.90;;;;;;5047995;28;20025;-68
2022/06/05 03:04:02;;;;;;;8.65;7.95;;;20.60;99.90;;;;;;5047463;28;20527;-68
2022/06/05 03:06:30;;;;;;;11.68;8.82;;;20.70;99.90;;;;;;5051239;28;20417;-68
2022/06/05 03:08:56;;;;;;;10.30;9.25;;;20.70;99.90;;;;;;5057294;28;20110;-68
2022/06/05 03:11:22;;;;;;;9.50;8.40;;;20.70;99.90;;;;;;5055219;28;20472;-68
2022/06/05 03:13:47;;;;;;;10.80;9.80;;;20.70;99.90;;;;;;5050149;28;20113;-69
2022/06/05 03:16:13;;;;;;;14.13;9.50;;;20.70;99.90;;;;;;5051086;28;20060;-68
2022/06/05 03:18:40;;;;;;;9.93;8.93;;;20.70;99.90;;;;;;5064387;28;20384;-69
2022/06/05 03:21:05;;;;;;;15.68;9.75;;;20.70;99.90;;;;;;5055648;28;20033;-68
2022/06/05 03:23:32;;;;;;;10.73;8.70;;;20.70;99.90;;;;;;5047485;28;20110;-68
2022/06/05 03:25:58;;;;;;;10.63;9.55;;;20.70;99.90;;;;;;5044781;28;20033;-69
2022/06/05 03:28:25;;;;;;;11.98;10.77;;;20.70;99.90;;;;;;5048173;28;20037;-68
2022/06/05 03:30:50;;;;;;;10.32;9.15;;;20.70;99.90;;;;;;5050250;28;20393;-68
2022/06/05 03:33:17;;;;;;;10.40;9.43;;;20.80;99.90;;;;;;5053049;28;20025;-68
2022/06/05 03:35:45;;;;;;;10.90;8.90;;;20.70;99.90;;;;;;5058308;28;20035;-68
2022/06/05 03:38:12;;;;;;;10.00;8.90;;;20.70;99.90;;;;;;5059386;28;20017;-68
2022/06/05 03:40:42;;;;;;;10.25;9.25;;;20.70;99.90;;;;;;5051897;28;20029;-68
2022/06/05 03:43:08;;;;;;;10.40;9.38;;;20.70;99.90;;;;;;5053221;28;20029;-69
2022/06/05 03:45:34;;;;;;;10.05;9.02;;;20.70;99.90;;;;;;5066794;28;20044;-69
2022/06/05 03:47:59;;;;;;;12.15;9.13;;;20.80;99.90;;;;;;5046441;28;20025;-68
2022/06/05 03:50:25;;;;;;;9.85;8.48;;;20.80;99.90;;;;;;5051549;28;20435;-68
2022/06/05 03:52:51;;;;;;;10.10;9.10;;;20.70;99.90;;;;;;5062685;28;20498;-68
2022/06/05 03:55:20;;;;;;;10.30;9.30;;;20.70;99.90;;;;;;5049740;28;20021;-68
2022/06/05 03:57:46;;;;;;;10.98;7.85;;;20.70;99.90;;;;;;5049294;28;20031;-69
2022/06/05 04:00:15;;;;;;;9.57;8.77;;;20.70;99.90;;;;;;5055060;28;20058;-69
2022/06/05 04:02:41;;;;;;;10.68;9.15;;;20.60;99.90;;;;;;5054127;28;20041;-68
2022/06/05 04:05:08;;;;;;;10.98;10.00;;;20.60;99.90;;;;;;5057452;28;20478;-68
2022/06/05 04:07:34;;;;;;;9.35;8.43;;;20.60;99.90;;;;;;5050978;28;20116;-70
2022/06/05 04:10:00;;;;;;;12.30;9.23;;;20.70;99.90;;;;;;5051202;28;20096;-70
2022/06/05 04:12:26;;;;;;;9.45;8.55;;;20.70;99.90;;;;;;5047025;28;20021;-70
2022/06/05 04:14:52;;;;;;;10.43;9.32;;;20.70;99.90;;;;;;5056316;28;20033;-70
2022/06/05 04:17:17;;;;;;;9.95;9.02;;;20.60;99.90;;;;;;5059279;28;20024;-69
2022/06/05 04:19:43;;;;;;;16.65;10.27;;;20.60;99.90;;;;;;5055474;28;20032;-71
2022/06/05 04:22:09;;;;;;;11.45;10.35;;;20.60;99.90;;;;;;5051767;28;20036;-70
2022/06/05 04:24:34;;;;;;;12.85;9.63;;;20.60;99.90;;;;;;5054172;28;20035;-70
2022/06/05 04:27:00;;;;;;;10.57;9.45;;;20.60;99.90;;;;;;5058350;28;20049;-71
2022/06/05 04:29:26;;;;;;;11.68;10.20;;;20.60;99.90;;;;;;5052950;28;20028;-70
2022/06/05 04:31:52;;;;;;;10.20;8.85;;;20.60;99.90;;;;;;5049642;28;20441;-71
2022/06/05 04:34:21;;;;;;;10.57;9.27;;;20.60;99.90;;;;;;5061047;28;20090;-70
2022/06/05 04:36:47;;;;;;;11.73;10.13;;;20.50;99.90;;;;;;5051519;28;20029;-70
2022/06/05 04:39:13;;;;;;;16.63;11.10;;;20.50;99.90;;;;;;5062896;28;20031;-71
2022/06/05 04:41:39;;;;;;;11.48;10.38;;;20.50;99.90;;;;;;5062538;28;20093;-71
2022/06/05 04:44:07;;;;;;;11.55;10.30;;;20.50;99.90;;;;;;5052597;28;20037;-71
2022/06/05 04:46:35;;;;;;;11.70;10.60;;;20.50;99.90;;;;;;5056327;28;20520;-71
2022/06/05 04:49:00;;;;;;;10.40;9.40;;;20.50;99.90;;;;;;5055104;28;20488;-71
2022/06/05 04:51:26;;;;;;;12.68;10.65;;;20.50;99.90;;;;;;5057328;28;20028;-70
2022/06/05 04:53:54;;;;;;;12.55;11.23;;;20.50;99.90;;;;;;5059420;28;20496;-70
2022/06/05 04:56:22;;;;;;;11.57;10.52;;;20.50;99.90;;;;;;5056158;28;20105;-71
2022/06/05 04:58:48;;;;;;;13.00;11.60;;;20.50;99.90;;;;;;5061897;28;20028;-71
2022/06/05 05:01:19;;;;;;;16.02;12.73;;;20.50;99.90;;;;;;5057295;28;20409;-71
2022/06/05 05:03:45;;;;;;;15.55;11.45;;;20.50;99.90;;;;;;5052712;28;20021;-70
2022/06/05 05:06:12;;;;;;;12.55;11.10;;;20.50;99.90;;;;;;5051900;28;20048;-70
2022/06/05 05:08:38;;;;;;;12.93;10.70;;;20.60;99.90;;;;;;5054916;28;20039;-70
2022/06/05 05:11:04;;;;;;;11.98;10.75;;;20.50;99.90;;;;;;5042200;28;20037;-70
2022/06/05 05:13:30;;;;;;;11.90;10.80;;;20.50;99.90;;;;;;5060549;28;20112;-69
2022/06/05 05:15:56;;;;;;;12.43;11.15;;;20.50;99.90;;;;;;5050743;28;20106;-70
2022/06/05 05:18:23;;;;;;;13.38;11.98;;;20.50;99.90;;;;;;5062270;28;20376;-70
2022/06/05 05:20:50;;;;;;;12.73;11.52;;;20.60;99.90;;;;;;5048047;28;20114;-70
2022/06/05 05:23:16;;;;;;;12.10;10.55;;;20.60;99.90;;;;;;5055814;28;20017;-70
2022/06/05 05:25:41;;;;;;;17.95;11.25;;;20.70;99.90;;;;;;5055283;28;20047;-70
2022/06/05 05:28:08;;;;;;;12.38;11.20;;;20.60;99.90;;;;;;5044999;28;20029;-70
2022/06/05 05:30:34;;;;;;;13.55;11.65;;;20.60;99.90;;;;;;5067037;28;20491;-69
2022/06/05 05:33:00;;;;;;;13.48;12.07;;;20.60;99.90;;;;;;5064090;28;20108;-70
2022/06/05 05:35:26;;;;;;;12.18;10.52;;;20.60;99.90;;;;;;5055151;28;20059;-69
2022/06/05 05:37:51;;;;;;;12.80;11.38;;;20.60;99.90;;;;;;5054712;28;20029;-70
2022/06/05 05:43:02;;;;;;;11.50;10.27;;;20.60;99.90;;;;;;5054720;28;20048;-70
2022/06/05 05:45:28;;;;;;;13.00;11.25;;;20.60;99.90;;;;;;5054271;28;20539;-70
2022/06/05 05:47:53;;;;;;;13.02;10.38;;;20.60;99.90;;;;;;5052091;28;20029;-70
2022/06/05 05:50:19;;;;;;;11.85;10.40;;;20.60;99.90;;;;;;5054192;28;20029;-70
2022/06/05 05:52:45;;;;;;;12.02;10.35;;;20.60;99.90;;;;;;5054436;28;20536;-70
2022/06/05 05:55:19;;;;;;;14.02;11.43;;;20.60;99.90;;;;;;5053826;28;20025;-70
2022/06/05 05:57:48;;;;;;;11.88;10.68;;;20.60;99.90;;;;;;5054159;28;20505;-70
2022/06/05 06:00:17;;;;;;;12.57;11.23;;;20.60;99.90;;;;;;5053756;28;20359;-70
2022/06/05 06:02:43;;;;;;;12.77;11.48;;;20.60;99.90;;;;;;5052805;28;20470;-70
2022/06/05 06:05:13;;;;;;;12.35;11.15;;;20.50;99.90;;;;;;5054496;28;20496;-70
2022/06/05 06:07:39;;;;;;;14.27;11.30;;;20.50;99.90;;;;;;5054207;28;20040;-69
2022/06/05 06:10:05;;;;;;;14.30;12.15;;;20.50;99.90;;;;;;5053309;28;20021;-70
2022/06/05 06:12:31;;;;;;;12.25;11.15;;;20.50;99.90;;;;;;5052888;28;20025;-69
2022/06/05 06:14:57;;;;;;;12.63;11.32;;;20.60;99.90;;;;;;5052076;28;20381;-69
2022/06/05 06:17:22;;;;;;;12.75;11.23;;;20.60;99.90;;;;;;5046923;28;20374;-69
2022/06/05 06:19:48;;;;;;;13.55;12.25;;;20.70;99.90;;;;;;5053615;28;20108;-68
2022/06/05 06:22:14;;;;;;;14.60;11.50;;;20.80;99.90;;;;;;5052156;28;20025;-70
2022/06/05 06:24:40;;;;;;;13.90;11.07;;;20.70;99.90;;;;;;5053517;28;20116;-68
2022/06/05 06:27:05;;;;;;;14.18;12.23;;;20.60;99.90;;;;;;5054150;28;20025;-68
2022/06/05 06:29:31;;;;;;;13.48;11.65;;;20.60;99.90;;;;;;5053704;28;20029;-68
2022/06/05 06:31:57;;;;;;;12.30;10.95;;;20.70;99.90;;;;;;5053395;28;20025;-68
2022/06/05 06:34:22;;;;;;;11.82;10.30;;;20.80;99.90;;;;;;5053934;28;20033;-68
2022/06/05 06:36:48;;;;;;;13.50;11.43;;;20.80;99.90;;;;;;5054456;28;20025;-69
2022/06/05 06:39:14;;;;;;;12.68;11.38;;;20.80;99.90;;;;;;5051469;28;20032;-70
2022/06/05 06:41:40;;;;;;;14.98;12.43;;;20.90;99.90;;;;;;5047178;28;20029;-70
2022/06/05 06:44:06;;;;;;;15.02;13.43;;;20.90;99.90;;;;;;5050808;28;20090;-68
2022/06/05 06:46:33;;;;;;;15.23;12.95;;;20.90;99.90;;;;;;5047645;28;20036;-68
2022/06/05 06:48:59;;;;;;;14.20;13.00;;;20.90;99.90;;;;;;5052962;28;20104;-68
2022/06/05 06:51:25;;;;;;;13.20;11.95;;;21.00;99.90;;;;;;5053686;28;20108;-68
2022/06/05 06:53:51;;;;;;;13.65;12.20;;;21.00;99.90;;;;;;5052851;28;20021;-68
2022/06/05 06:56:20;;;;;;;15.45;13.40;;;21.10;99.90;;;;;;5053249;28;20033;-68
2022/06/05 06:58:47;;;;;;;13.20;11.82;;;21.10;99.90;;;;;;5051702;28;20035;-69
2022/06/05 07:01:14;;;;;;;13.45;12.18;;;21.20;99.90;;;;;;5063483;28;20025;-70
2022/06/05 07:03:39;;;;;;;15.07;13.68;;;21.20;99.90;;;;;;5073075;28;20021;-68
2022/06/05 07:06:12;;;;;;;15.40;12.13;;;21.30;99.90;;;;;;5043911;28;20087;-69
2022/06/05 07:08:39;;;;;;;13.98;12.40;;;21.30;99.90;;;;;;5033310;28;20158;-68
2022/06/05 07:11:06;;;;;;;12.30;11.20;;;21.40;99.90;;;;;;5033162;28;20893;-68
2022/06/05 07:13:32;;;;;;;13.82;11.70;;;21.40;99.90;;;;;;5051937;28;20035;-68
2022/06/05 07:15:57;;;;;;;12.63;11.30;;;21.50;99.90;;;;;;5052099;28;20104;-68
2022/06/05 07:18:23;;;;;;;12.60;11.40;;;21.60;99.90;;;;;;5053625;28;20025;-69
2022/06/05 07:20:49;;;;;;;12.52;11.13;;;21.60;99.90;;;;;;5050601;28;20030;-68
2022/06/05 07:23:15;;;;;;;13.00;11.60;;;21.60;99.90;;;;;;5051747;28;20040;-68
2022/06/05 07:25:49;;;;;;;12.40;10.90;;;21.60;99.90;;;;;;5042937;28;20037;-68
2022/06/05 07:28:16;;;;;;;13.73;12.35;;;21.60;99.90;;;;;;5033364;28;20028;-68
2022/06/05 07:30:46;;;;;;;13.73;12.32;;;21.70;99.90;;;;;;5032849;28;20109;-67
2022/06/05 07:33:12;;;;;;;15.63;13.00;;;21.70;99.90;;;;;;5045998;28;20021;-68
2022/06/05 07:35:38;;;;;;;12.45;11.35;;;21.80;99.90;;;;;;5053119;28;20025;-67
2022/06/05 07:38:04;;;;;;;13.77;12.40;;;21.90;99.90;;;;;;5053445;28;20546;-68
2022/06/05 07:40:29;;;;;;;13.88;12.07;;;21.90;99.90;;;;;;5052442;28;20045;-68
2022/06/05 07:42:55;;;;;;;13.13;11.82;;;22.00;99.90;;;;;;5052932;28;20393;-68
2022/06/05 07:45:21;;;;;;;13.45;12.13;;;22.10;99.90;;;;;;5052180;28;20132;-69
2022/06/05 07:47:46;;;;;;;12.38;11.23;;;22.10;99.90;;;;;;5052295;28;20386;-68
2022/06/05 07:50:13;;;;;;;12.70;11.45;;;22.10;99.90;;;;;;5052443;28;20017;-67
2022/06/05 07:55:24;;;;;;;11.82;10.73;;;22.30;99.90;;;;;;5033347;28;20137;-67
2022/06/05 07:57:50;;;;;;;12.30;11.10;;;22.40;99.90;;;;;;5033027;28;20009;-67
2022/06/05 08:00:16;;;;;;;12.32;11.18;;;22.40;99.90;;;;;;5036619;28;20543;-68
2022/06/05 08:02:42;;;;;;;11.73;10.52;;;22.30;99.90;;;;;;5051807;28;20024;-67
2022/06/05 08:05:09;;;;;;;11.02;9.90;;;22.20;99.90;;;;;;5032001;28;20038;-68
2022/06/05 08:07:35;;;;;;;10.82;9.93;;;22.30;99.90;;;;;;5030634;28;20018;-70
2022/06/05 08:10:02;;;;;;;11.77;10.63;;;22.30;99.90;;;;;;5031511;28;20124;-69
2022/06/05 08:12:31;;;;;;;11.30;10.30;;;22.30;99.90;;;;;;5051582;28;20020;-70
2022/06/05 08:15:00;;;;;;;12.32;11.13;;;22.30;99.90;;;;;;5072598;28;20459;-70
2022/06/05 08:17:30;;;;;;;12.13;10.82;;;22.30;99.90;;;;;;5056930;28;20074;-70
2022/06/05 08:19:56;;;;;;;11.30;10.23;;;22.30;99.90;;;;;;5030633;28;20399;-69
2022/06/05 08:22:23;;;;;;;10.90;9.75;;;22.40;99.90;;;;;;5042957;28;20017;-68
2022/06/05 08:24:49;;;;;;;11.43;10.38;;;22.40;99.90;;;;;;5052788;28;20044;-69
2022/06/05 08:27:18;;;;;;;13.10;10.10;;;22.40;99.90;;;;;;5051126;28;20025;-69
2022/06/05 08:29:44;;;;;;;11.57;10.02;;;22.40;99.90;;;;;;5052773;28;20025;-70
2022/06/05 08:32:11;;;;;;;11.40;10.48;;;22.50;99.90;;;;;;5050242;28;20021;-71
2022/06/05 08:34:37;;;;;;;10.88;9.88;;;22.50;99.90;;;;;;5050220;28;20550;-70
2022/06/05 08:42:59;;;;;;;11.25;10.27;;;22.40;99.90;;;;;;5070909;28;20043;-69
2022/06/05 08:45:31;;;;;;;12.65;11.00;;;22.40;99.90;;;;;;5071291;28;20064;-69
2022/06/05 08:48:05;;;;;;;12.93;10.40;;;22.40;99.90;;;;;;5072488;28;20020;-69
2022/06/05 08:50:53;;;;;;;11.48;10.35;;;22.40;99.90;;;;;;5049921;28;20021;-69
2022/06/05 08:53:47;;;;;;;13.55;12.32;;;22.40;99.90;;;;;;5048407;28;20083;-68
2022/06/05 08:56:21;;;;;;;12.20;11.18;;;22.40;99.90;;;;;;5051315;28;20376;-69
2022/06/05 08:58:52;;;;;;;11.70;10.70;;;22.30;99.90;;;;;;5051995;28;20025;-68
2022/06/05 09:01:30;;;;;;;13.20;11.85;;;22.30;99.90;;;;;;5050561;28;20559;-68
2022/06/05 09:04:13;;;;;;;12.45;11.18;;;22.30;99.90;;;;;;5035557;28;20148;-68
2022/06/05 09:06:49;;;;;;;12.88;11.02;;;22.20;99.90;;;;;;5039691;28;20083;-69
2022/06/05 09:09:25;;;;;;;13.93;10.98;;;22.10;99.90;;;;;;5048728;28;20025;-69
2022/06/05 09:12:28;;;;;;;11.65;10.68;;;22.20;99.90;;;;;;5056402;28;20063;-69
2022/06/05 09:15:15;;;;;;;14.80;11.80;;;22.30;99.90;;;;;;5053811;28;20052;-69
2022/06/05 09:17:51;;;;;;;13.38;12.07;;;22.30;99.90;;;;;;5060424;28;20036;-69
2022/06/05 09:20:18;;;;;;;12.93;11.70;;;22.30;99.90;;;;;;5066201;28;20089;-68
2022/06/05 09:22:50;;;;;;;14.25;13.07;;;22.40;99.90;;;;;;5032503;28;20504;-69
2022/06/05 09:25:25;;;;;;;;;;;22.30;99.90;;;;;;5042869;28;20119;-68
2022/06/05 09:28:12;;;;;;;15.05;13.75;;;22.30;99.90;;;;;;5042096;28;19909;-71
2022/06/05 09:30:59;;;;;;;18.77;15.32;;;22.30;99.90;;;;;;5043871;28;20026;-69
2022/06/05 09:33:37;;;;;;;16.73;14.35;;;22.30;99.90;;;;;;5052309;28;20434;-70
2022/06/05 09:36:09;;;;;;;17.33;15.52;;;22.30;99.90;;;;;;5054485;28;20048;-69
2022/06/05 09:38:43;;;;;;;16.88;15.35;;;22.30;99.90;;;;;;5055007;28;20029;-69
2022/06/05 09:41:12;;;;;;;17.15;15.45;;;22.30;99.90;;;;;;5056700;28;20025;-69
2022/06/05 09:43:53;;;;;;;18.50;16.60;;;22.20;99.90;;;;;;5074653;28;20127;-69
2022/06/05 09:46:52;;;;;;;17.20;15.38;;;22.10;99.90;;;;;;5064624;28;20044;-70
2022/06/05 09:49:41;;;;;;;18.42;16.73;;;22.10;99.90;;;;;;5055647;28;20033;-71
2022/06/05 09:52:13;;;;;;;18.42;16.63;;;22.10;99.90;;;;;;5054612;28;20029;-71
2022/06/05 09:54:44;;;;;;;19.15;17.45;;;22.00;99.90;;;;;;5054642;28;20029;-71
2022/06/05 10:00:18;;;;;;;24.00;20.98;;;22.00;99.90;;;;;;5053317;28;20221;-71
2022/06/05 10:02:47;;;;;;;;;;;21.80;99.90;;;;;;5052594;28;20033;-72
2022/06/05 10:05:14;;;;;;;20.63;17.92;;;21.70;99.90;;;;;;5053633;28;19956;-71
2022/06/05 10:07:46;;;;;;;21.95;19.85;;;21.80;99.90;;;;;;5054157;28;20090;-71
2022/06/05 10:10:17;;;;;;;;;;;21.70;99.90;;;;;;5054920;28;20028;-71
2022/06/05 10:12:50;;;;;;;25.85;20.23;;;21.70;99.90;;;;;;5070786;28;19908;-71
2022/06/05 10:15:22;;;;;;;;;;;21.40;99.90;;;;;;5053928;28;20438;-71
2022/06/05 10:17:48;;;;;;;21.92;19.58;;;21.20;99.90;;;;;;5054300;28;19908;-71
2022/06/05 10:20:14;;;;;;;27.80;24.55;;;21.30;99.90;;;;;;5050966;28;20033;-72
2022/06/05 10:22:39;;;;;;;27.00;22.95;;;21.10;99.90;;;;;;5032622;28;20362;-72
2022/06/05 10:25:27;;;;;;;24.98;22.25;;;21.00;99.90;;;;;;5033890;28;20060;-72
2022/06/05 10:27:56;;;;;;;36.60;26.55;;;20.80;99.90;;;;;;5033940;28;20543;-72
2022/06/05 10:30:30;;;;;;;25.67;23.15;;;20.80;99.90;;;;;;5032805;28;20052;-72
2022/06/05 10:33:38;;;;;;;27.05;24.25;;;20.80;99.90;;;;;;5051668;28;20039;-71
2022/06/05 10:36:18;;;;;;;27.58;24.88;;;20.90;99.90;;;;;;5033426;28;20033;-71
2022/06/05 10:39:09;;;;;;;35.90;29.63;;;21.00;99.90;;;;;;5034066;28;20485;-72
2022/06/05 10:41:53;;;;;;;28.92;26.05;;;21.10;99.90;;;;;;5052968;28;20060;-73
2022/06/05 10:44:25;;;;;;;31.10;28.17;;;21.30;99.90;;;;;;5053020;28;20033;-73
2022/06/05 10:46:57;;;;;;;26.50;23.80;;;21.30;99.90;;;;;;5054370;28;20032;-72
2022/06/05 10:49:44;;;;;;;28.63;25.77;;;21.50;99.90;;;;;;5072731;28;20028;-71
2022/06/05 10:52:27;;;;;;;32.10;28.42;;;21.50;99.90;;;;;;5073549;28;20381;-71
2022/06/05 10:55:18;;;;;;;32.83;29.48;;;21.50;99.90;;;;;;5069630;28;20013;-71
2022/06/05 10:58:08;;;;;;;32.05;28.88;;;21.60;99.90;;;;;;5053701;28;20037;-71
2022/06/05 11:01:00;;;;;;;32.85;29.65;;;21.70;99.90;;;;;;5051475;28;20017;-71
2022/06/05 11:03:39;;;;;;;;;;;21.70;99.90;;;;;;5033129;28;20025;-70
2022/06/05 11:06:40;;;;;;;34.63;31.23;;;21.80;99.90;;;;;;5032953;28;19916;-70
2022/06/05 11:09:25;;;;;;;31.83;28.73;;;21.90;99.90;;;;;;5043167;28;20377;-70
2022/06/05 11:15:24;;;;;;;33.85;30.48;;;21.90;99.90;;;;;;5050309;28;20111;-70
2022/06/05 11:18:16;;;;;;;34.45;31.08;;;22.00;99.90;;;;;;5033359;28;20017;-70
2022/06/05 11:20:50;;;;;;;34.65;31.30;;;22.10;99.90;;;;;;5033265;28;20109;-70
2022/06/05 11:23:26;;;;;;;34.58;31.35;;;22.00;99.90;;;;;;5033425;28;20033;-69
2022/06/05 11:26:04;;;;;;;34.45;31.00;;;22.00;99.90;;;;;;5045987;28;20866;-70
2022/06/05 11:28:59;;;;;;;30.60;27.92;;;21.90;99.90;;;;;;5046217;28;20048;-69
2022/06/05 11:31:53;;;;;;;35.38;32.15;;;21.80;99.90;;;;;;5045625;28;20050;-70
2022/06/05 11:34:39;;;;;;;34.00;30.80;;;22.00;99.90;;;;;;5032717;28;20026;-70
2022/06/05 11:37:19;;;;;;;29.40;26.60;;;22.00;99.90;;;;;;5031988;28;20688;-71
2022/06/05 11:39:51;;;;;;;30.88;27.92;;;21.90;99.90;;;;;;5033228;28;20021;-71
2022/06/05 11:42:28;;;;;;;28.60;25.87;;;21.90;99.90;;;;;;5053738;28;20076;-72
2022/06/05 11:45:03;;;;;;;33.67;30.30;;;21.90;99.90;;;;;;5051158;28;20052;-73
2022/06/05 11:47:50;;;;;;;29.73;26.83;;;21.90;99.90;;;;;;5042685;28;20032;-71
2022/06/05 11:50:38;;;;;;;31.25;28.38;;;21.90;99.90;;;;;;5053727;28;20432;-72
2022/06/05 11:53:25;;;;;;;31.45;28.45;;;21.90;99.90;;;;;;5058065;28;20028;-72
2022/06/05 11:56:05;;;;;;;30.02;27.00;;;21.90;99.90;;;;;;5042390;28;20020;-73
2022/06/05 11:58:49;;;;;;;31.33;28.45;;;22.00;99.90;;;;;;5052332;28;20032;-72
2022/06/05 12:01:19;;;;;;;31.27;28.30;;;22.00;99.90;;;;;;5050521;28;20067;-73
2022/06/05 12:04:10;;;;;;;32.78;29.48;;;21.90;99.90;;;;;;5055656;28;20036;-72
2022/06/05 12:06:46;;;;;;;34.55;31.35;;;22.00;99.90;;;;;;5050873;28;20037;-72
2022/06/05 12:09:44;;;;;;;33.15;30.20;;;22.00;99.90;;;;;;5054238;28;20052;-72
2022/06/05 12:12:28;;;;;;;32.35;29.10;;;22.10;99.90;;;;;;5051928;28;20096;-72
2022/06/05 12:15:28;;;;;;;34.75;30.50;;;22.10;99.90;;;;;;5049864;28;20035;-73
2022/06/05 12:18:19;;;;;;;37.33;33.45;;;22.10;99.90;;;;;;5046036;28;20440;-74
2022/06/05 12:20:56;;;;;;;34.85;31.23;;;22.10;99.90;;;;;;5055832;28;20508;-70
2022/06/05 12:23:25;;;;;;;34.92;31.42;;;22.00;99.90;;;;;;5049003;28;20021;-70
2022/06/05 12:26:01;;;;;;;34.67;31.38;;;22.10;99.90;;;;;;5058709;28;20032;-71
2022/06/05 12:28:40;;;;;;;33.90;30.70;;;22.20;99.90;;;;;;5053219;28;20144;-72
2022/06/05 12:31:30;;;;;;;32.13;29.08;;;22.30;99.90;;;;;;5051007;28;20497;-73
2022/06/05 12:34:03;;;;;;;33.97;30.67;;;22.20;99.90;;;;;;5055056;28;20047;-73
2022/06/05 12:36:35;;;;;;;34.28;31.13;;;22.30;99.90;;;;;;5053961;28;20365;-72
2022/06/05 12:39:05;;;;;;;36.70;32.75;;;22.30;99.90;;;;;;5041400;28;20033;-72
2022/06/05 12:41:47;;;;;;;36.40;32.85;;;22.30;99.90;;;;;;5057033;28;20028;-72
2022/06/05 12:44:30;;;;;;;35.72;32.15;;;22.30;99.90;;;;;;5058410;28;20072;-71
2022/06/05 12:46:59;;;;;;;36.88;33.15;;;22.30;99.90;;;;;;5048315;28;20552;-71
2022/06/05 12:49:38;;;;;;;36.33;32.83;;;22.30;99.90;;;;;;5049433;28;20033;-70
2022/06/05 12:52:26;;;;;;;36.25;32.75;;;22.30;99.90;;;;;;5051339;28;20025;-71
2022/06/05 12:55:13;;;;;;;35.75;32.10;;;22.20;99.90;;;;;;5050958;28;20120;-71
2022/06/05 12:57:45;;;;;;;37.28;33.55;;;22.10;99.90;;;;;;5057924;28;20179;-72
2022/06/05 13:00:36;;;;;;;42.20;38.13;;;22.20;99.90;;;;;;5051222;28;20028;-70
2022/06/05 13:03:24;;;;;;;41.55;37.35;;;22.20;99.90;;;;;;5047948;28;20283;-72
2022/06/05 13:06:02;;;;;;;39.92;35.67;;;22.30;99.90;;;;;;5058933;28;20036;-72
2022/06/05 13:08:46;;;;;;;42.85;38.45;;;22.20;99.90;;;;;;5061523;28;20009;-71
2022/06/05 13:11:27;;;;;;;44.30;39.55;;;22.30;99.90;;;;;;5058996;28;20473;-73
2022/06/05 13:14:09;;;;;;;48.65;43.72;;;22.30;99.90;;;;;;5057051;28;20057;-73
2022/06/05 13:16:41;;;;;;;;;;;22.30;99.90;;;;;;5060568;28;20036;-73
2022/06/05 13:19:35;;;;;;;48.65;40.90;;;22.20;99.90;;;;;;5058937;28;19986;-73
2022/06/05 13:22:26;;;;;;;49.40;44.10;;;22.20;99.90;;;;;;5045066;28;20029;-72
2022/06/05 13:25:13;;;;;;;52.78;47.08;;;22.30;99.90;;;;;;5051106;28;20406;-73
2022/06/05 13:27:54;;;;;;;52.80;47.22;;;22.30;99.90;;;;;;5059237;28;20039;-72